createdAt,value
2022-08-22T00:02:43.111Z,0.00
2022-08-22T00:03:01.117Z,0.00
2022-08-22T04:00:26.704Z,0.00
2022-08-22T04:01:26.638Z,0.00
2022-08-22T04:02:41.950Z,0.00
2022-08-22T04:03:27.603Z,0.00
2022-08-22T04:04:26.613Z,0.00
2022-08-22T04:05:26.576Z,4.00
2022-08-22T04:06:26.573Z,4.00
2022-08-22T04:07:28.225Z,0.00
2022-08-22T04:08:27.536Z,4.00
2022-08-22T04:09:26.527Z,4.00
2022-08-22T04:10:26.517Z,4.00
2022-08-22T04:11:31.545Z,8.00
2022-08-22T04:12:26.497Z,4.00
2022-08-22T04:13:26.494Z,8.00
2022-08-22T04:14:26.470Z,8.00
2022-08-22T04:15:26.459Z,8.00
2022-08-22T04:16:26.460Z,8.00
2022-08-22T04:17:26.437Z,12.00
2022-08-22T04:18:26.427Z,16.00
2022-08-22T04:19:26.418Z,16.00
2022-08-22T04:20:26.406Z,16.00
2022-08-22T04:21:26.404Z,24.00
2022-08-22T04:22:31.404Z,24.00
2022-08-22T04:23:26.371Z,28.00
2022-08-22T04:24:26.360Z,32.00
2022-08-22T04:25:26.358Z,36.00
2022-08-22T04:26:26.351Z,40.00
2022-08-22T04:27:26.326Z,40.00
2022-08-22T04:28:26.320Z,48.00
2022-08-22T04:29:26.304Z,48.00
2022-08-22T04:30:26.294Z,56.00
2022-08-22T04:31:26.317Z,60.00
2022-08-22T04:32:26.272Z,64.00
2022-08-22T04:33:31.283Z,68.00
2022-08-22T04:34:26.266Z,72.00
2022-08-22T04:35:26.239Z,80.00
2022-08-22T04:36:26.237Z,84.00
2022-08-22T04:37:26.216Z,92.00
2022-08-22T04:38:26.206Z,100.00
2022-08-22T04:39:26.194Z,104.00
2022-08-22T04:40:26.184Z,112.00
2022-08-22T04:41:26.182Z,116.00
2022-08-22T04:42:32.611Z,124.00
2022-08-22T04:43:27.151Z,132.00
2022-08-22T04:44:31.163Z,136.00
2022-08-22T04:45:26.131Z,144.00
2022-08-22T04:46:26.137Z,152.00
2022-08-22T04:47:27.106Z,156.00
2022-08-22T04:48:26.170Z,164.00
2022-08-22T04:49:26.087Z,172.00
2022-08-22T04:50:26.076Z,176.00
2022-08-22T04:51:26.071Z,188.00
2022-08-22T04:52:29.501Z,192.00
2022-08-22T04:53:26.040Z,200.00
2022-08-22T04:54:26.036Z,204.00
2022-08-22T04:55:31.041Z,216.00
2022-08-22T04:56:26.024Z,220.00
2022-08-22T04:57:25.996Z,224.00
2022-08-22T04:58:25.989Z,232.00
2022-08-22T04:59:25.974Z,240.00
2022-08-22T05:00:25.966Z,248.00
2022-08-22T05:01:25.995Z,248.00
2022-08-22T05:02:25.953Z,256.00
2022-08-22T05:03:25.931Z,264.00
2022-08-22T05:04:25.929Z,272.00
2022-08-22T05:05:25.910Z,280.00
2022-08-22T05:06:30.968Z,284.00
2022-08-22T05:07:25.985Z,296.00
2022-08-22T05:08:25.877Z,304.00
2022-08-22T05:09:25.867Z,312.00
2022-08-22T05:10:25.861Z,316.00
2022-08-22T05:11:25.847Z,328.00
2022-08-22T05:12:25.842Z,332.00
2022-08-22T05:13:25.841Z,340.00
2022-08-22T05:14:25.813Z,352.00
2022-08-22T05:15:25.803Z,356.00
2022-08-22T05:16:25.798Z,364.00
2022-08-22T05:17:30.807Z,368.00
2022-08-22T05:18:29.563Z,376.00
2022-08-22T05:19:31.783Z,384.00
2022-08-22T05:20:26.743Z,388.00
2022-08-22T05:21:26.988Z,392.00
2022-08-22T05:22:25.740Z,400.00
2022-08-22T05:23:25.714Z,408.00
2022-08-22T05:24:27.867Z,412.00
2022-08-22T05:25:25.694Z,424.00
2022-08-22T05:26:25.678Z,428.00
2022-08-22T05:27:25.680Z,436.00
2022-08-22T05:28:30.728Z,444.00
2022-08-22T05:29:25.646Z,452.00
2022-08-22T05:30:25.634Z,460.00
2022-08-22T05:31:25.639Z,468.00
2022-08-22T05:32:25.615Z,472.00
2022-08-22T05:33:25.600Z,480.00
2022-08-22T05:34:25.589Z,488.00
2022-08-22T05:35:25.579Z,496.00
2022-08-22T05:36:25.572Z,508.00
2022-08-22T05:37:25.587Z,512.00
2022-08-22T05:38:25.546Z,520.00
2022-08-22T05:39:30.555Z,524.00
2022-08-22T05:40:25.523Z,536.00
2022-08-22T05:41:25.513Z,552.00
2022-08-22T05:42:25.515Z,580.00
2022-08-22T05:43:25.489Z,632.00
2022-08-22T05:44:25.513Z,696.00
2022-08-22T05:45:25.469Z,756.00
2022-08-22T05:46:27.083Z,860.00
2022-08-22T05:47:25.457Z,952.00
2022-08-22T05:48:25.441Z,944.00
2022-08-22T05:49:25.432Z,872.00
2022-08-22T05:50:30.437Z,788.00
2022-08-22T05:51:25.424Z,712.00
2022-08-22T05:52:25.484Z,712.00
2022-08-22T05:53:25.380Z,744.00
2022-08-22T05:54:33.561Z,772.00
2022-08-22T05:55:26.360Z,816.00
2022-08-22T05:56:25.556Z,912.00
2022-08-22T05:57:25.349Z,980.00
2022-08-22T05:58:25.326Z,968.00
2022-08-22T05:59:25.319Z,948.00
2022-08-22T06:00:25.305Z,948.00
2022-08-22T06:01:30.368Z,964.00
2022-08-22T06:02:25.298Z,1000.00
2022-08-22T06:03:25.271Z,1012.00
2022-08-22T06:04:25.265Z,996.00
2022-08-22T06:05:25.250Z,960.00
2022-08-22T06:06:25.239Z,956.00
2022-08-22T06:07:25.237Z,1004.00
2022-08-22T06:08:25.218Z,996.00
2022-08-22T06:09:25.210Z,952.00
2022-08-22T06:10:26.200Z,916.00
2022-08-22T06:11:25.186Z,860.00
2022-08-22T06:12:31.204Z,836.00
2022-08-22T06:13:25.532Z,852.00
2022-08-22T06:14:25.153Z,876.00
2022-08-22T06:15:25.142Z,900.00
2022-08-22T06:16:25.127Z,920.00
2022-08-22T06:17:25.126Z,944.00
2022-08-22T06:18:25.108Z,988.00
2022-08-22T06:19:25.096Z,1084.00
2022-08-22T06:20:25.084Z,1196.00
2022-08-22T06:21:25.072Z,1324.00
2022-08-22T06:22:25.098Z,1532.00
2022-08-22T06:23:30.071Z,2036.00
2022-08-22T06:24:25.041Z,2624.00
2022-08-22T06:25:25.034Z,3212.00
2022-08-22T06:26:25.024Z,3924.00
2022-08-22T06:27:25.002Z,4364.00
2022-08-22T06:28:25.008Z,4188.00
2022-08-22T06:29:24.981Z,3428.00
2022-08-22T06:30:24.972Z,2588.00
2022-08-22T06:31:24.958Z,2280.00
2022-08-22T06:32:44.440Z,1944.00
2022-08-22T06:33:25.946Z,1840.00
2022-08-22T06:34:29.949Z,1956.00
2022-08-22T06:35:24.915Z,1712.00
2022-08-22T06:36:24.912Z,1536.00
2022-08-22T06:37:24.896Z,1620.00
2022-08-22T06:38:24.895Z,1696.00
2022-08-22T06:39:24.876Z,1356.00
2022-08-22T06:40:24.906Z,1200.00
2022-08-22T06:41:24.867Z,1164.00
2022-08-22T06:42:24.840Z,1168.00
2022-08-22T06:43:24.908Z,1176.00
2022-08-22T06:44:24.816Z,1172.00
2022-08-22T06:45:29.828Z,1188.00
2022-08-22T06:46:24.799Z,1252.00
2022-08-22T06:47:24.796Z,1308.00
2022-08-22T06:48:24.786Z,1300.00
2022-08-22T06:49:24.771Z,1572.00
2022-08-22T06:50:24.753Z,1896.00
2022-08-22T06:51:24.736Z,1528.00
2022-08-22T06:52:24.728Z,1392.00
2022-08-22T06:53:24.729Z,1684.00
2022-08-22T06:54:24.707Z,2128.00
2022-08-22T06:55:24.691Z,3056.00
2022-08-22T06:56:29.708Z,3176.00
2022-08-22T06:57:24.670Z,1604.00
2022-08-22T06:58:24.673Z,1420.00
2022-08-22T06:59:24.651Z,1540.00
2022-08-22T07:00:24.639Z,1896.00
2022-08-22T07:01:24.695Z,2524.00
2022-08-22T07:02:24.617Z,2488.00
2022-08-22T07:03:24.622Z,1800.00
2022-08-22T07:04:24.594Z,1232.00
2022-08-22T07:05:24.595Z,1176.00
2022-08-22T07:06:24.580Z,1128.00
2022-08-22T07:07:29.582Z,1120.00
2022-08-22T07:08:24.583Z,1144.00
2022-08-22T07:09:24.547Z,1144.00
2022-08-22T07:10:24.537Z,1168.00
2022-08-22T07:11:26.033Z,1200.00
2022-08-22T07:12:24.508Z,1256.00
2022-08-22T07:13:24.506Z,1336.00
2022-08-22T07:14:24.526Z,1464.00
2022-08-22T07:15:24.491Z,1512.00
2022-08-22T07:16:24.463Z,1440.00
2022-08-22T07:17:24.451Z,1312.00
2022-08-22T07:18:29.479Z,1316.00
2022-08-22T07:19:24.432Z,1368.00
2022-08-22T07:20:24.438Z,1420.00
2022-08-22T07:21:24.409Z,1520.00
2022-08-22T07:22:24.402Z,1664.00
2022-08-22T07:23:24.400Z,1832.00
2022-08-22T07:24:24.377Z,2040.00
2022-08-22T07:25:24.365Z,2204.00
2022-08-22T07:26:24.355Z,2324.00
2022-08-22T07:27:24.348Z,2540.00
2022-08-22T07:28:31.817Z,2596.00
2022-08-22T07:29:30.342Z,2644.00
2022-08-22T07:30:28.000Z,2804.00
2022-08-22T07:31:24.319Z,2960.00
2022-08-22T07:32:24.289Z,3024.00
2022-08-22T07:33:26.513Z,3096.00
2022-08-22T07:34:24.268Z,3048.00
2022-08-22T07:35:24.259Z,3024.00
2022-08-22T07:36:27.358Z,2916.00
2022-08-22T07:37:25.233Z,2768.00
2022-08-22T07:38:24.253Z,2744.00
2022-08-22T07:39:24.213Z,2788.00
2022-08-22T07:40:29.229Z,2860.00
2022-08-22T07:41:24.193Z,2920.00
2022-08-22T07:42:27.486Z,3092.00
2022-08-22T07:43:25.183Z,3256.00
2022-08-22T07:44:24.161Z,3340.00
2022-08-22T07:45:24.155Z,3384.00
2022-08-22T07:46:24.140Z,3300.00
2022-08-22T07:47:26.544Z,3156.00
2022-08-22T07:48:26.175Z,2952.00
2022-08-22T07:49:24.104Z,2736.00
2022-08-22T07:50:24.168Z,2516.00
2022-08-22T07:51:29.107Z,2420.00
2022-08-22T07:52:24.074Z,2424.00
2022-08-22T07:53:24.071Z,2540.00
2022-08-22T07:54:27.196Z,2716.00
2022-08-22T07:55:24.045Z,2964.00
2022-08-22T07:56:24.027Z,3032.00
2022-08-22T07:57:24.015Z,3000.00
2022-08-22T07:58:24.013Z,2868.00
2022-08-22T07:59:23.996Z,2612.00
2022-08-22T08:00:24.063Z,2492.00
2022-08-22T08:01:24.036Z,2448.00
2022-08-22T08:02:28.981Z,2560.00
2022-08-22T08:03:23.969Z,2696.00
2022-08-22T08:04:23.939Z,3184.00
2022-08-22T08:05:23.926Z,4168.00
2022-08-22T08:06:23.922Z,4500.00
2022-08-22T08:07:23.903Z,2368.00
2022-08-22T08:08:23.903Z,2060.00
2022-08-22T08:09:23.889Z,2012.00
2022-08-22T08:10:23.957Z,2104.00
2022-08-22T08:11:23.860Z,2288.00
2022-08-22T08:12:23.847Z,2424.00
2022-08-22T08:13:28.870Z,2600.00
2022-08-22T08:14:23.825Z,2800.00
2022-08-22T08:15:23.815Z,2796.00
2022-08-22T08:16:23.801Z,3008.00
2022-08-22T08:17:23.841Z,2888.00
2022-08-22T08:18:23.801Z,2952.00
2022-08-22T08:19:23.771Z,2544.00
2022-08-22T08:20:23.791Z,2280.00
2022-08-22T08:21:23.747Z,2156.00
2022-08-22T08:22:23.734Z,2108.00
2022-08-22T08:23:24.087Z,2120.00
2022-08-22T08:24:28.740Z,2076.00
2022-08-22T08:25:24.705Z,2140.00
2022-08-22T08:26:23.693Z,2060.00
2022-08-22T08:27:23.713Z,2056.00
2022-08-22T08:28:23.722Z,2452.00
2022-08-22T08:29:23.670Z,2124.00
2022-08-22T08:30:23.754Z,2220.00
2022-08-22T08:31:23.638Z,2428.00
2022-08-22T08:32:23.622Z,2256.00
2022-08-22T08:33:24.975Z,2676.00
2022-08-22T08:34:23.599Z,2860.00
2022-08-22T08:35:28.610Z,3092.00
2022-08-22T08:36:23.576Z,2584.00
2022-08-22T08:37:23.580Z,2584.00
2022-08-22T08:38:23.554Z,2728.00
2022-08-22T08:39:23.594Z,2924.00
2022-08-22T08:40:23.610Z,2556.00
2022-08-22T08:41:23.525Z,2684.00
2022-08-22T08:42:23.511Z,2660.00
2022-08-22T08:43:23.500Z,2932.00
2022-08-22T08:44:23.498Z,3260.00
2022-08-22T08:45:23.478Z,3608.00
2022-08-22T08:46:28.494Z,3636.00
2022-08-22T08:47:23.459Z,4660.00
2022-08-22T08:48:23.457Z,3728.00
2022-08-22T08:49:23.961Z,3720.00
2022-08-22T08:50:23.838Z,3972.00
2022-08-22T08:51:23.517Z,3828.00
2022-08-22T08:52:24.431Z,3932.00
2022-08-22T08:53:23.398Z,3688.00
2022-08-22T08:54:23.391Z,4308.00
2022-08-22T08:55:23.370Z,4140.00
2022-08-22T08:57:29.367Z,4768.00
2022-08-22T08:58:23.333Z,4388.00
2022-08-22T08:59:23.335Z,4336.00
2022-08-22T09:00:23.312Z,4532.00
2022-08-22T09:01:27.509Z,4340.00
2022-08-22T09:02:23.656Z,4696.00
2022-08-22T09:03:30.509Z,5152.00
2022-08-22T09:04:24.282Z,5564.00
2022-08-22T09:05:24.498Z,4516.00
2022-08-22T09:06:23.246Z,4116.00
2022-08-22T09:07:23.245Z,4128.00
2022-08-22T09:08:28.244Z,4184.00
2022-08-22T09:09:23.231Z,4240.00
2022-08-22T09:10:23.200Z,4036.00
2022-08-22T09:11:28.120Z,4096.00
2022-08-22T09:12:23.183Z,3884.00
2022-08-22T09:13:23.169Z,3536.00
2022-08-22T09:14:23.156Z,3476.00
2022-08-22T09:15:23.158Z,3312.00
2022-08-22T09:16:23.155Z,3336.00
2022-08-22T09:17:23.128Z,3488.00
2022-08-22T09:18:23.275Z,7188.00
2022-08-22T09:19:28.125Z,9272.00
2022-08-22T09:20:23.149Z,3828.00
2022-08-22T09:21:31.214Z,3352.00
2022-08-22T09:22:24.071Z,3364.00
2022-08-22T09:23:23.059Z,3012.00
2022-08-22T09:24:23.213Z,3612.00
2022-08-22T09:25:23.587Z,3328.00
2022-08-22T09:26:23.025Z,4856.00
2022-08-22T09:27:23.021Z,7336.00
2022-08-22T09:28:23.077Z,7652.00
2022-08-22T09:29:23.993Z,6168.00
2022-08-22T09:30:28.690Z,18560.00
2022-08-22T09:31:33.025Z,38432.00
2022-08-22T09:32:23.964Z,28256.00
2022-08-22T09:33:22.955Z,5172.00
2022-08-22T09:34:23.952Z,2916.00
2022-08-22T09:35:22.940Z,2904.00
2022-08-22T09:36:22.916Z,2820.00
2022-08-22T09:37:22.907Z,2768.00
2022-08-22T09:38:22.917Z,2708.00
2022-08-22T09:39:22.891Z,3004.00
2022-08-22T09:40:15.240Z,5524.00
2022-08-22T09:41:27.885Z,2572.00
2022-08-22T09:42:22.849Z,2528.00
2022-08-22T09:43:23.087Z,2484.00
2022-08-22T09:44:22.849Z,2452.00
2022-08-22T09:45:22.822Z,2364.00
2022-08-22T09:46:29.455Z,2336.00
2022-08-22T09:47:24.355Z,2340.00
2022-08-22T09:48:22.784Z,2360.00
2022-08-22T09:49:22.778Z,2416.00
2022-08-22T09:50:22.775Z,2716.00
2022-08-22T09:51:32.157Z,4116.00
2022-08-22T09:52:34.052Z,9064.00
2022-08-22T09:53:23.733Z,6804.00
2022-08-22T09:54:22.724Z,9556.00
2022-08-22T09:55:35.004Z,15392.00
2022-08-22T09:56:26.193Z,7024.00
2022-08-22T09:57:23.691Z,12132.00
2022-08-22T09:58:22.754Z,21568.00
2022-08-22T09:59:22.670Z,14496.00
2022-08-22T10:00:22.715Z,2868.00
2022-08-22T10:01:22.705Z,2956.00
2022-08-22T10:02:22.633Z,14944.00
2022-08-22T10:03:27.645Z,19456.00
2022-08-22T10:04:22.618Z,17952.00
2022-08-22T10:05:39.487Z,8996.00
2022-08-22T10:06:23.589Z,8628.00
2022-08-22T10:07:22.581Z,5712.00
2022-08-22T10:08:26.136Z,2604.00
2022-08-22T10:09:31.188Z,3596.00
2022-08-22T10:10:23.545Z,3208.00
2022-08-22T10:11:22.535Z,2384.00
2022-08-22T10:12:24.801Z,3044.00
2022-08-22T10:13:22.581Z,2248.00
2022-08-22T10:14:27.542Z,2264.00
2022-08-22T10:15:22.496Z,2236.00
2022-08-22T10:16:22.479Z,2212.00
2022-08-22T10:17:22.471Z,2208.00
2022-08-22T10:18:22.490Z,2232.00
2022-08-22T10:19:22.451Z,2244.00
2022-08-22T10:20:22.800Z,2284.00
2022-08-22T10:21:22.427Z,2600.00
2022-08-22T10:22:22.411Z,2312.00
2022-08-22T10:23:22.423Z,2728.00
2022-08-22T10:24:25.328Z,3376.00
2022-08-22T10:25:28.479Z,3328.00
2022-08-22T10:26:22.884Z,5060.00
2022-08-22T10:27:22.712Z,2496.00
2022-08-22T10:28:23.351Z,2628.00
2022-08-22T10:29:23.336Z,2244.00
2022-08-22T10:30:22.339Z,2280.00
2022-08-22T10:31:22.421Z,2512.00
2022-08-22T10:32:26.383Z,2436.00
2022-08-22T10:33:23.003Z,2600.00
2022-08-22T10:34:22.734Z,2776.00
2022-08-22T10:35:22.282Z,3028.00
2022-08-22T10:36:27.292Z,2468.00
2022-08-22T10:37:23.632Z,2580.00
2022-08-22T10:38:22.261Z,2576.00
2022-08-22T10:39:22.556Z,3372.00
2022-08-22T10:40:22.327Z,4248.00
2022-08-22T10:41:22.512Z,8584.00
2022-08-22T10:42:23.199Z,4556.00
2022-08-22T10:43:22.184Z,11208.00
2022-08-22T10:44:23.205Z,18688.00
2022-08-22T10:45:23.979Z,29472.00
2022-08-22T10:46:23.148Z,11708.00
2022-08-22T10:47:27.161Z,19072.00
2022-08-22T10:48:22.138Z,20704.00
2022-08-22T10:49:22.486Z,13572.00
2022-08-22T10:50:23.126Z,10160.00
2022-08-22T10:51:23.100Z,10572.00
2022-08-22T10:52:22.087Z,13764.00
2022-08-22T10:53:29.441Z,20288.00
2022-08-22T10:54:23.070Z,18496.00
2022-08-22T10:55:22.083Z,9236.00
2022-08-22T10:56:22.042Z,7488.00
2022-08-22T10:57:22.030Z,2948.00
2022-08-22T10:58:27.042Z,3504.00
2022-08-22T10:59:22.735Z,3556.00
2022-08-22T11:00:22.622Z,4900.00
2022-08-22T11:01:37.886Z,3216.00
2022-08-22T11:02:22.989Z,5308.00
2022-08-22T11:03:23.472Z,5852.00
2022-08-22T11:04:28.042Z,3896.00
2022-08-22T11:05:22.955Z,4612.00
2022-08-22T11:06:21.931Z,6136.00
2022-08-22T11:07:21.989Z,10756.00
2022-08-22T11:08:21.917Z,8632.00
2022-08-22T11:09:21.904Z,10172.00
2022-08-22T11:10:21.926Z,4068.00
2022-08-22T11:11:32.567Z,3692.00
2022-08-22T11:12:22.867Z,4604.00
2022-08-22T11:13:21.858Z,4224.00
2022-08-22T11:14:21.860Z,4636.00
2022-08-22T11:15:34.645Z,5184.00
2022-08-22T11:16:22.836Z,5144.00
2022-08-22T11:17:30.265Z,5264.00
2022-08-22T11:18:22.813Z,5148.00
2022-08-22T11:19:21.801Z,4648.00
2022-08-22T11:20:21.784Z,4604.00
2022-08-22T11:21:21.771Z,8320.00
2022-08-22T11:22:26.797Z,11472.00
2022-08-22T11:23:21.771Z,4144.00
2022-08-22T11:24:35.610Z,11040.00
2022-08-22T11:25:35.648Z,5204.00
2022-08-22T11:26:23.062Z,3996.00
2022-08-22T11:27:25.298Z,3880.00
2022-08-22T11:28:22.694Z,4508.00
2022-08-22T11:29:21.702Z,4540.00
2022-08-22T11:30:21.790Z,4792.00
2022-08-22T11:31:21.662Z,5184.00
2022-08-22T11:32:21.659Z,5144.00
2022-08-22T11:33:21.648Z,4860.00
2022-08-22T11:34:22.643Z,4644.00
2022-08-22T11:35:26.641Z,4052.00
2022-08-22T11:36:21.658Z,4700.00
2022-08-22T11:37:24.100Z,3584.00
2022-08-22T11:38:22.586Z,4396.00
2022-08-22T11:39:21.593Z,5048.00
2022-08-22T11:40:21.627Z,6312.00
2022-08-22T11:41:21.622Z,4732.00
2022-08-22T11:42:21.666Z,4380.00
2022-08-22T11:43:21.534Z,4112.00
2022-08-22T11:44:21.537Z,3900.00
2022-08-22T11:45:21.598Z,4500.00
2022-08-22T11:46:21.504Z,5096.00
2022-08-22T11:47:26.502Z,5744.00
2022-08-22T11:48:27.499Z,5808.00
2022-08-22T11:49:21.483Z,6592.00
2022-08-22T11:50:22.454Z,6180.00
2022-08-22T11:51:25.047Z,5032.00
2022-08-22T11:52:21.440Z,4948.00
2022-08-22T11:53:21.424Z,4452.00
2022-08-22T11:54:21.424Z,3084.00
2022-08-22T11:55:22.404Z,2636.00
2022-08-22T11:56:21.409Z,2544.00
2022-08-22T11:57:21.380Z,2832.00
2022-08-22T11:58:21.370Z,3100.00
2022-08-22T11:59:26.410Z,2992.00
2022-08-22T12:00:21.350Z,3020.00
2022-08-22T12:01:21.336Z,3180.00
2022-08-22T12:02:21.352Z,2644.00
2022-08-22T12:03:23.226Z,2404.00
2022-08-22T12:04:21.316Z,2508.00
2022-08-22T12:05:26.505Z,2716.00
2022-08-22T12:06:22.291Z,2844.00
2022-08-22T12:07:21.275Z,2848.00
2022-08-22T12:08:21.508Z,2668.00
2022-08-22T12:09:21.270Z,2628.00
2022-08-22T12:10:26.264Z,2664.00
2022-08-22T12:11:21.238Z,2740.00
2022-08-22T12:12:21.224Z,2532.00
2022-08-22T12:13:21.231Z,2512.00
2022-08-22T12:14:22.206Z,2592.00
2022-08-22T12:15:21.460Z,3096.00
2022-08-22T12:16:21.176Z,3540.00
2022-08-22T12:17:26.303Z,3404.00
2022-08-22T12:18:22.213Z,3176.00
2022-08-22T12:19:22.906Z,4540.00
2022-08-22T12:20:21.204Z,4220.00
2022-08-22T12:21:26.147Z,3036.00
2022-08-22T12:22:21.110Z,2648.00
2022-08-22T12:23:21.108Z,2328.00
2022-08-22T12:24:21.181Z,2232.00
2022-08-22T12:25:22.519Z,2232.00
2022-08-22T12:26:21.978Z,2452.00
2022-08-22T12:27:29.031Z,3480.00
2022-08-22T12:28:22.049Z,13932.00
2022-08-22T12:29:33.501Z,7644.00
2022-08-22T12:30:22.030Z,67712.00
2022-08-22T12:31:21.024Z,66400.00
2022-08-22T12:32:27.829Z,40256.00
2022-08-22T12:33:23.084Z,6028.00
2022-08-22T12:34:21.016Z,27296.00
2022-08-22T12:35:20.975Z,76256.00
2022-08-22T12:36:21.958Z,81120.00
2022-08-22T12:37:20.948Z,82976.00
2022-08-22T12:38:28.896Z,85504.00
2022-08-22T12:39:21.940Z,49824.00
2022-08-22T12:40:20.918Z,75808.00
2022-08-22T12:41:28.421Z,76512.00
2022-08-22T12:42:21.905Z,69952.00
2022-08-22T12:43:21.831Z,30752.00
2022-08-22T12:44:20.914Z,3444.00
2022-08-22T12:45:25.885Z,2644.00
2022-08-22T12:46:20.877Z,2760.00
2022-08-22T12:47:20.869Z,2728.00
2022-08-22T12:48:20.837Z,2632.00
2022-08-22T12:49:20.830Z,2564.00
2022-08-22T12:50:20.821Z,2528.00
2022-08-22T12:51:20.801Z,2504.00
2022-08-22T12:52:20.790Z,2492.00
2022-08-22T12:53:20.781Z,2452.00
2022-08-22T12:54:20.779Z,2440.00
2022-08-22T12:55:20.757Z,2432.00
2022-08-22T12:56:20.748Z,2424.00
2022-08-22T12:57:24.240Z,2424.00
2022-08-22T12:58:25.756Z,2404.00
2022-08-22T12:59:20.749Z,2400.00
2022-08-22T13:00:23.011Z,2424.00
2022-08-22T13:01:23.423Z,2444.00
2022-08-22T13:02:21.685Z,2440.00
2022-08-22T13:03:20.672Z,2412.00
2022-08-22T13:04:33.480Z,2384.00
2022-08-22T13:05:21.650Z,2348.00
2022-08-22T13:06:20.640Z,2320.00
2022-08-22T13:07:22.846Z,2344.00
2022-08-22T13:08:20.618Z,2352.00
2022-08-22T13:09:20.619Z,2364.00
2022-08-22T13:10:21.603Z,2296.00
2022-08-22T13:11:25.611Z,2316.00
2022-08-22T13:12:20.602Z,2260.00
2022-08-22T13:13:25.697Z,2228.00
2022-08-22T13:14:25.884Z,2220.00
2022-08-22T13:15:20.546Z,2308.00
2022-08-22T13:16:20.533Z,2388.00
2022-08-22T13:17:24.421Z,2492.00
2022-08-22T13:18:29.697Z,2468.00
2022-08-22T13:19:21.512Z,2428.00
2022-08-22T13:20:20.492Z,2380.00
2022-08-22T13:21:20.587Z,2340.00
2022-08-22T13:22:20.469Z,2264.00
2022-08-22T13:23:20.457Z,2236.00
2022-08-22T13:24:38.577Z,2176.00
2022-08-22T13:25:25.903Z,2152.00
2022-08-22T13:26:34.394Z,2144.00
2022-08-22T13:27:21.415Z,2132.00
2022-08-22T13:28:20.405Z,2136.00
2022-08-22T13:29:27.555Z,2144.00
2022-08-22T13:30:21.382Z,2132.00
2022-08-22T13:31:20.371Z,2120.00
2022-08-22T13:32:20.364Z,2116.00
2022-08-22T13:33:20.358Z,2116.00
2022-08-22T13:34:20.359Z,2128.00
2022-08-22T13:35:20.328Z,2132.00
2022-08-22T13:36:20.325Z,2092.00
2022-08-22T13:37:25.696Z,2104.00
2022-08-22T13:38:25.932Z,2064.00
2022-08-22T13:39:21.321Z,2096.00
2022-08-22T13:40:20.417Z,2092.00
2022-08-22T13:41:20.266Z,2112.00
2022-08-22T13:42:29.708Z,2044.00
2022-08-22T13:43:21.242Z,2072.00
2022-08-22T13:44:20.245Z,2028.00
2022-08-22T13:45:20.225Z,2068.00
2022-08-22T13:46:20.212Z,2052.00
2022-08-22T13:47:20.199Z,2104.00
2022-08-22T13:48:20.194Z,2096.00
2022-08-22T13:49:20.195Z,2128.00
2022-08-22T13:50:25.192Z,2152.00
2022-08-22T13:51:20.188Z,2136.00
2022-08-22T13:52:29.019Z,2112.00
2022-08-22T13:53:21.135Z,2088.00
2022-08-22T13:54:20.136Z,2092.00
2022-08-22T13:55:20.114Z,2076.00
2022-08-22T13:56:20.106Z,2132.00
2022-08-22T13:57:20.098Z,2172.00
2022-08-22T13:58:20.083Z,2232.00
2022-08-22T13:59:34.276Z,2232.00
2022-08-22T14:00:29.314Z,2144.00
2022-08-22T14:01:21.077Z,2116.00
2022-08-22T14:02:20.102Z,2128.00
2022-08-22T14:03:25.105Z,2144.00
2022-08-22T14:04:31.647Z,2168.00
2022-08-22T14:05:21.007Z,2228.00
2022-08-22T14:06:35.313Z,2332.00
2022-08-22T14:07:23.916Z,2460.00
2022-08-22T14:08:19.980Z,2504.00
2022-08-22T14:09:31.357Z,2560.00
2022-08-22T14:10:20.952Z,2644.00
2022-08-22T14:11:19.941Z,2580.00
2022-08-22T14:12:19.932Z,2492.00
2022-08-22T14:13:19.918Z,2352.00
2022-08-22T14:14:24.946Z,2420.00
2022-08-22T14:15:19.901Z,2372.00
2022-08-22T14:16:19.891Z,2304.00
2022-08-22T14:17:19.877Z,2248.00
2022-08-22T14:18:19.885Z,2268.00
2022-08-22T14:19:19.896Z,2296.00
2022-08-22T14:20:32.606Z,2344.00
2022-08-22T14:21:20.832Z,2396.00
2022-08-22T14:22:19.824Z,2360.00
2022-08-22T14:23:19.812Z,2340.00
2022-08-22T14:24:19.818Z,2248.00
2022-08-22T14:25:24.813Z,2312.00
2022-08-22T14:26:19.781Z,2476.00
2022-08-22T14:27:20.769Z,2500.00
2022-08-22T14:28:19.760Z,2508.00
2022-08-22T14:29:20.224Z,2508.00
2022-08-22T14:30:19.750Z,2396.00
2022-08-22T14:31:19.727Z,2264.00
2022-08-22T14:32:22.639Z,2144.00
2022-08-22T14:33:20.704Z,2148.00
2022-08-22T14:34:19.716Z,2248.00
2022-08-22T14:35:23.125Z,2404.00
2022-08-22T14:36:25.702Z,2412.00
2022-08-22T14:37:19.683Z,2364.00
2022-08-22T14:38:19.681Z,2304.00
2022-08-22T14:39:19.651Z,2296.00
2022-08-22T14:40:19.793Z,2472.00
2022-08-22T14:41:19.802Z,2364.00
2022-08-22T14:42:19.610Z,2264.00
2022-08-22T14:43:22.653Z,2240.00
2022-08-22T14:44:19.598Z,2180.00
2022-08-22T14:45:19.576Z,2136.00
2022-08-22T14:46:19.567Z,2076.00
2022-08-22T14:47:52.770Z,2060.00
2022-08-22T14:48:30.890Z,2088.00
2022-08-22T14:49:25.564Z,2140.00
2022-08-22T14:50:19.546Z,2148.00
2022-08-22T14:51:19.536Z,2104.00
2022-08-22T14:52:20.559Z,2108.00
2022-08-22T14:53:19.490Z,2092.00
2022-08-22T14:54:21.477Z,2172.00
2022-08-22T14:55:19.480Z,2216.00
2022-08-22T14:56:19.462Z,2316.00
2022-08-22T14:57:19.849Z,2420.00
2022-08-22T14:58:27.645Z,2556.00
2022-08-22T14:59:20.436Z,2664.00
2022-08-22T15:00:19.415Z,2728.00
2022-08-22T15:01:19.462Z,2676.00
2022-08-22T15:02:24.424Z,2628.00
2022-08-22T15:03:19.405Z,2600.00
2022-08-22T15:04:19.596Z,2580.00
2022-08-22T15:05:19.365Z,2628.00
2022-08-22T15:06:19.356Z,2736.00
2022-08-22T15:07:19.339Z,2812.00
2022-08-22T15:08:19.329Z,2784.00
2022-08-22T15:09:19.913Z,2776.00
2022-08-22T15:10:20.751Z,2740.00
2022-08-22T15:11:19.298Z,2628.00
2022-08-22T15:12:19.291Z,2524.00
2022-08-22T15:13:19.300Z,2440.00
2022-08-22T15:14:20.290Z,2320.00
2022-08-22T15:15:24.274Z,2208.00
2022-08-22T15:16:19.267Z,2096.00
2022-08-22T15:17:19.256Z,2048.00
2022-08-22T15:18:19.221Z,2044.00
2022-08-22T15:19:19.223Z,2132.00
2022-08-22T15:20:22.791Z,2112.00
2022-08-22T15:21:24.233Z,2100.00
2022-08-22T15:22:19.181Z,2060.00
2022-08-22T15:23:19.176Z,2108.00
2022-08-22T15:24:19.182Z,2212.00
2022-08-22T15:25:19.147Z,2276.00
2022-08-22T15:26:19.136Z,2224.00
2022-08-22T15:27:19.150Z,2192.00
2022-08-22T15:28:25.860Z,2124.00
2022-08-22T15:29:19.161Z,2124.00
2022-08-22T15:30:20.954Z,2140.00
2022-08-22T15:31:19.084Z,2204.00
2022-08-22T15:32:19.078Z,2224.00
2022-08-22T15:33:19.146Z,2260.00
2022-08-22T15:34:19.061Z,2268.00
2022-08-22T15:35:19.042Z,2216.00
2022-08-22T15:36:19.028Z,2216.00
2022-08-22T15:37:19.020Z,2268.00
2022-08-22T15:38:19.006Z,2324.00
2022-08-22T15:39:19.009Z,2200.00
2022-08-22T15:40:19.023Z,2132.00
2022-08-22T15:41:23.995Z,2100.00
2022-08-22T15:42:18.989Z,2108.00
2022-08-22T15:43:18.975Z,2108.00
2022-08-22T15:44:30.830Z,2132.00
2022-08-22T15:45:19.940Z,2112.00
2022-08-22T15:46:18.920Z,2136.00
2022-08-22T15:47:23.785Z,2172.00
2022-08-22T15:48:19.898Z,2184.00
2022-08-22T15:49:18.891Z,2212.00
2022-08-22T15:50:18.889Z,2260.00
2022-08-22T15:51:18.873Z,2324.00
2022-08-22T15:52:18.890Z,2380.00
2022-08-22T15:53:18.846Z,2312.00
2022-08-22T15:54:24.611Z,2208.00
2022-08-22T15:55:18.856Z,2416.00
2022-08-22T15:56:18.837Z,2376.00
2022-08-22T15:57:18.800Z,2360.00
2022-08-22T15:58:18.793Z,2420.00
2022-08-22T15:59:18.778Z,2464.00
2022-08-22T16:00:18.781Z,2480.00
2022-08-22T16:01:20.545Z,2148.00
2022-08-22T16:02:18.766Z,2184.00
2022-08-22T16:03:18.737Z,1836.00
2022-08-22T16:04:18.730Z,1992.00
2022-08-22T16:05:18.727Z,1908.00
2022-08-22T16:06:18.706Z,1728.00
2022-08-22T16:07:23.715Z,1512.00
2022-08-22T16:08:18.688Z,1372.00
2022-08-22T16:09:18.673Z,1360.00